Time,TemperatureF,DewpointF,PressureIn,WindDirection,WindDirectionDegrees,WindSpeedMPH,WindSpeedGustMPH,Humidity,HourlyPrecipIn,Conditions,Clouds,dailyrainin,SolarRadiationWatts/m^2,SoftwareType,DateUTC
2013-07-05 00:03:00,72.7,63.9,30.06,ENE,68,2.9,3.5,74,0.00,SCT,BKN,0.00,0.0,WeatherDisplay:10.37,2013-07-05 10:03:00,
2013-07-05 00:08:00,72.7,64.3,30.06,ENE,68,2.6,3.3,75,0.00,SCT,BKN,0.00,0.0,WeatherDisplay:10.37,2013-07-05 10:08:00,
2013-07-05 00:13:00,72.7,64.3,30.06,ENE,68,2.4,2.6,75,0.00,SCT,BKN,0.00,0.0,WeatherDisplay:10.37,2013-07-05 10:13:00,
2013-07-05 00:18:00,72.7,63.9,30.06,NE,45,3.1,3.5,74,0.00,SCT,BKN,0.00,0.0,WeatherDisplay:10.37,2013-07-05 10:18:00,
2013-07-05 00:23:00,72.7,64.3,30.06,NE,45,3.1,4.6,75,0.00,SCT,BKN,0.00,0.0,WeatherDisplay:10.37,2013-07-05 10:23:00,
2013-07-05 00:29:00,72.5,63.7,30.06,NE,45,1.6,2.4,74,0.00,SCT,BKN,0.00,0.0,WeatherDisplay:10.37,2013-07-05 10:29:00,
2013-07-05 00:34:00,72.5,63.7,30.06,NE,45,1.6,2.3,74,0.00,SCT,BKN,0.00,0.0,WeatherDisplay:10.37,2013-07-05 10:34:00,
2013-07-05 00:39:00,72.3,63.6,30.06,ENE,68,2.0,3.5,74,0.00,SCT,BKN,0.00,0.0,WeatherDisplay:10.37,2013-07-05 10:39:00,
2013-07-05 00:45:00,72.1,63.4,30.03,NE,45,0.0,0.0,74,0.00,SCT,BKN,0.00,0.0,WeatherDisplay:10.37,2013-07-05 10:45:00,
2013-07-05 00:50:00,72.0,62.8,30.03,NE,45,0.9,0.0,73,0.00,SCT,BKN,0.00,0.0,WeatherDisplay:10.37,2013-07-05 10:50:00,
2013-07-05 00:55:00,71.8,62.3,30.03,ENE,68,0.0,0.0,72,0.00,SCT,BKN,0.00,0.0,WeatherDisplay:10.37,2013-07-05 10:55:00,
2013-07-05 01:00:00,72.0,62.0,30.06,East,96,0.0,0.0,71,0.00,SCT,BKN,0.00,0.0,WeatherDisplay:10.37,2013-07-05 11:00:00,
2013-07-05 01:05:00,71.6,62.5,30.06,East,90,0.0,1.2,73,0.00,SCT,BKN,0.00,0.0,WeatherDisplay:10.37,2013-07-05 11:05:00,
2013-07-05 01:10:00,71.4,62.7,30.06,SW,225,0.0,1.6,74,0.00,SCT,BKN,0.00,0.0,WeatherDisplay:10.37,2013-07-05 11:10:00,
2013-07-05 01:15:00,71.2,62.9,30.06,South,180,1.2,1.4,75,0.00,SCT,BKN,0.00,0.0,WeatherDisplay:10.37,2013-07-05 11:15:00,
2013-07-05 01:21:00,71.2,63.3,30.06,South,180,0.0,0.9,76,0.00,SCT,BKN,0.00,0.0,WeatherDisplay:10.37,2013-07-05 11:21:00,
2013-07-05 01:26:00,71.1,63.1,30.06,South,180,0.0,0.0,76,0.00,SCT,BKN,0.00,0.0,WeatherDisplay:10.37,2013-07-05 11:26:00,
2013-07-05 01:31:00,70.9,63.3,30.06,SSW,202,0.0,1.2,77,0.00,SCT,BKN,0.00,0.0,WeatherDisplay:10.37,2013-07-05 11:31:00,
2013-07-05 01:36:00,71.1,63.5,30.06,South,180,1.6,2.3,77,0.00,SCT,BKN,0.00,0.0,WeatherDisplay:10.37,2013-07-05 11:36:00,
2013-07-05 01:41:00,71.1,63.5,30.06,South,180,2.0,2.3,77,0.00,SCT,BKN,0.00,0.0,WeatherDisplay:10.37,2013-07-05 11:41:00,
2013-07-05 01:47:00,70.9,63.3,30.06,South,180,0.0,0.0,77,0.00,SCT,BKN,0.00,0.0,WeatherDisplay:10.37,2013-07-05 11:47:00,
2013-07-05 01:52:00,70.7,63.1,30.06,ESE,112,0.0,0.0,77,0.00,SCT,BKN,0.00,0.0,WeatherDisplay:10.37,2013-07-05 11:52:00,
2013-07-05 01:57:00,70.3,62.8,30.06,East,90,0.0,0.0,77,0.00,SCT,BKN,0.00,0.0,WeatherDisplay:10.37,2013-07-05 11:57:00,
2013-07-05 02:02:00,70.2,63.0,30.06,East,90,0.0,1.2,78,0.00,SCT,BKN,0.00,0.0,WeatherDisplay:10.37,2013-07-05 12:02:00,
2013-07-05 02:07:00,70.3,63.5,30.06,South,180,0.0,2.3,79,0.00,SCT,BKN,0.00,0.0,WeatherDisplay:10.37,2013-07-05 12:07:00,
2013-07-05 02:12:00,70.3,63.2,30.06,South,180,0.0,0.0,78,0.00,SCT,BKN,0.00,0.0,WeatherDisplay:10.37,2013-07-05 12:12:00,
2013-07-05 02:18:00,70.3,63.2,30.06,SE,135,0.0,0.0,78,0.00,SCT,BKN,0.00,0.0,WeatherDisplay:10.37,2013-07-05 12:18:00,
2013-07-05 02:23:00,70.2,63.0,30.06,SE,135,0.0,0.0,78,0.00,SCT,BKN,0.00,0.0,WeatherDisplay:10.37,2013-07-05 12:23:00,
2013-07-05 02:28:00,70.0,62.8,30.06,SE,135,0.0,0.0,78,0.00,SCT,BKN,0.00,0.0,WeatherDisplay:10.37,2013-07-05 12:28:00,
2013-07-05 02:33:00,70.0,63.2,30.06,SE,135,0.0,0.0,79,0.00,SCT,BKN,0.00,0.0,WeatherDisplay:10.37,2013-07-05 12:33:00,
2013-07-05 02:39:00,69.8,63.3,30.06,SE,135,0.0,0.0,80,0.00,SCT,BKN,0.00,0.0,WeatherDisplay:10.37,2013-07-05 12:39:00,
2013-07-05 02:44:00,69.6,63.2,30.06,SE,135,0.0,0.0,80,0.00,SCT,BKN,0.00,0.0,WeatherDisplay:10.37,2013-07-05 12:44:00,
2013-07-05 02:49:00,69.8,63.3,30.06,SE,135,2.2,2.3,80,0.00,SCT,BKN,0.00,0.0,WeatherDisplay:10.37,2013-07-05 12:49:00,
2013-07-05 02:54:00,69.6,63.2,30.06,SE,135,0.0,0.0,80,0.00,SCT,BKN,0.00,0.0,WeatherDisplay:10.37,2013-07-05 12:54:00,
2013-07-05 02:59:00,69.8,63.3,30.03,South,180,0.0,1.2,80,0.00,SCT,BKN,0.00,0.0,WeatherDisplay:10.37,2013-07-05 12:59:00,
2013-07-05 03:04:00,69.6,63.5,30.03,East,90,0.0,1.2,81,0.00,SCT,BKN,0.00,0.0,WeatherDisplay:10.37,2013-07-05 13:04:00,
2013-07-05 03:09:00,69.4,63.4,30.03,East,90,0.0,0.0,81,0.00,SCT,BKN,0.00,0.0,WeatherDisplay:10.37,2013-07-05 13:09:00,
2013-07-05 03:14:00,69.3,63.2,30.03,East,90,0.0,0.0,81,0.00,SCT,BKN,0.00,0.0,WeatherDisplay:10.37,2013-07-05 13:14:00,
2013-07-05 03:19:00,69.3,63.2,30.03,NE,45,0.0,0.0,81,0.00,SCT,BKN,0.00,0.0,WeatherDisplay:10.37,2013-07-05 13:19:00,
2013-07-05 03:24:00,69.1,63.0,30.03,NE,45,0.0,0.0,81,0.00,SCT,BKN,0.00,0.0,WeatherDisplay:10.37,2013-07-05 13:24:00,
2013-07-05 03:29:00,68.9,63.2,30.06,East,90,0.0,0.0,82,0.00,SCT,BKN,0.00,0.0,WeatherDisplay:10.37,2013-07-05 13:29:00,
2013-07-05 03:34:00,68.9,63.2,30.06,East,90,0.0,0.0,82,0.00,SCT,BKN,0.00,0.0,WeatherDisplay:10.37,2013-07-05 13:34:00,
2013-07-05 03:39:00,68.9,63.2,30.06,NE,45,1.2,2.3,82,0.00,SCT,BKN,0.00,0.0,WeatherDisplay:10.37,2013-07-05 13:39:00,
2013-07-05 03:44:00,68.7,63.3,30.03,ENE,68,0.0,0.0,83,0.00,SCT,BKN,0.00,0.0,WeatherDisplay:10.37,2013-07-05 13:44:00,
2013-07-05 03:49:00,68.7,63.3,30.03,ENE,68,0.0,1.2,83,0.00,SCT,BKN,0.00,0.0,WeatherDisplay:10.37,2013-07-05 13:49:00,
2013-07-05 03:54:00,68.7,63.3,30.03,ENE,68,0.9,1.2,83,0.00,SCT,BKN,0.00,0.0,WeatherDisplay:10.37,2013-07-05 13:54:00,
2013-07-05 03:59:00,68.5,63.2,30.03,ENE,68,0.0,0.0,83,0.00,SCT,BKN,0.00,0.0,WeatherDisplay:10.37,2013-07-05 13:59:00,
2013-07-05 04:05:00,68.5,63.2,30.03,ENE,68,0.0,0.0,83,0.00,SCT,BKN,0.00,0.0,WeatherDisplay:10.37,2013-07-05 14:05:00,
2013-07-05 04:11:00,68.5,63.5,30.03,ENE,68,0.0,0.0,84,0.00,SCT,BKN,0.00,0.0,WeatherDisplay:10.37,2013-07-05 14:11:00,
2013-07-05 04:16:00,68.4,63.3,30.03,ENE,68,0.0,1.2,84,0.00,SCT,BKN,0.00,0.0,WeatherDisplay:10.37,2013-07-05 14:16:00,
2013-07-05 04:21:00,68.5,63.8,30.03,ENE,68,0.0,0.0,85,0.00,SCT,BKN,0.00,0.0,WeatherDisplay:10.37,2013-07-05 14:21:00,
2013-07-05 04:26:00,68.5,63.8,30.03,ENE,68,0.0,0.0,85,0.00,SCT,BKN,0.00,0.0,WeatherDisplay:10.37,2013-07-05 14:26:00,
2013-07-05 04:31:00,68.5,63.8,30.03,ENE,68,0.0,1.2,85,0.00,SCT,BKN,0.00,0.0,WeatherDisplay:10.37,2013-07-05 14:31:00,
2013-07-05 04:37:00,68.5,63.8,30.03,ENE,68,0.0,0.0,85,0.00,SCT,BKN,0.00,0.0,WeatherDisplay:10.37,2013-07-05 14:37:00,
2013-07-05 04:42:00,68.4,63.7,30.03,ENE,68,0.0,0.0,85,0.00,SCT,BKN,0.00,0.0,WeatherDisplay:10.37,2013-07-05 14:42:00,
2013-07-05 04:47:00,68.4,63.7,30.03,ENE,68,0.0,0.0,85,0.00,SCT,BKN,0.00,0.0,WeatherDisplay:10.37,2013-07-05 14:47:00,
2013-07-05 04:52:00,68.5,63.8,30.03,ENE,68,0.0,0.0,85,0.00,SCT,BKN,0.00,0.0,WeatherDisplay:10.37,2013-07-05 14:52:00,
2013-07-05 04:57:00,68.7,64.4,30.03,ENE,68,0.0,0.0,86,0.00,SCT,BKN,0.00,0.0,WeatherDisplay:10.37,2013-07-05 14:57:00,
2013-07-05 05:02:00,68.7,64.0,30.03,ENE,68,0.0,1.2,85,0.00,SCT,BKN,0.00,0.0,WeatherDisplay:10.37,2013-07-05 15:02:00,
2013-07-05 05:07:00,68.5,63.8,30.03,ENE,68,0.0,0.0,85,0.00,SCT,BKN,0.00,0.0,WeatherDisplay:10.37,2013-07-05 15:07:00,
2013-07-05 05:12:00,68.4,64.0,30.03,ENE,68,0.9,1.2,86,0.00,SCT,BKN,0.00,0.0,WeatherDisplay:10.37,2013-07-05 15:12:00,
2013-07-05 05:17:00,68.4,64.0,30.03,ENE,68,0.0,0.0,86,0.00,SCT,BKN,0.00,0.0,WeatherDisplay:10.37,2013-07-05 15:17:00,
2013-07-05 05:23:00,68.4,64.0,30.03,ENE,68,0.0,0.0,86,0.00,SCT,BKN,0.00,0.0,WeatherDisplay:10.37,2013-07-05 15:23:00,
2013-07-05 05:28:00,68.4,64.0,30.03,ENE,68,0.0,0.0,86,0.00,SCT,BKN,0.00,0.0,WeatherDisplay:10.37,2013-07-05 15:28:00,
2013-07-05 05:33:00,68.4,64.3,30.03,ENE,68,0.0,0.0,87,0.00,SCT,BKN,0.00,0.0,WeatherDisplay:10.37,2013-07-05 15:33:00,
2013-07-05 05:38:00,68.2,63.8,30.03,ENE,68,0.0,0.0,86,0.00,SCT,BKN,0.00,0.0,WeatherDisplay:10.37,2013-07-05 15:38:00,
2013-07-05 05:43:00,68.2,63.8,30.06,ENE,68,0.0,0.0,86,0.00,SCT,BKN,0.00,0.0,WeatherDisplay:10.37,2013-07-05 15:43:00,
2013-07-05 05:48:00,68.4,64.0,30.06,ENE,68,0.0,0.0,86,0.00,SCT,BKN,0.00,0.0,WeatherDisplay:10.37,2013-07-05 15:48:00,
2013-07-05 05:50:00,68.4,64.3,30.06,ENE,68,0.9,1.2,87,0.00,SCT,BKN,0.00,0.0,WeatherDisplay:10.37,2013-07-05 15:50:00,
2013-07-05 05:55:00,68.4,64.3,30.06,ENE,68,0.0,1.2,87,0.00,SCT,BKN,0.00,0.0,WeatherDisplay:10.37,2013-07-05 15:55:00,
2013-07-05 06:00:00,68.4,64.3,30.06,ENE,68,0.0,0.0,87,0.00,SCT,BKN,0.00,0.0,WeatherDisplay:10.37,2013-07-05 16:00:00,
2013-07-05 06:05:00,68.4,64.3,30.06,ENE,68,0.0,0.0,87,0.00,SCT,BKN,0.00,0.0,WeatherDisplay:10.37,2013-07-05 16:05:00,
2013-07-05 06:10:00,68.4,64.7,30.06,ENE,68,0.9,1.2,88,0.00,SCT,BKN,0.00,0.0,WeatherDisplay:10.37,2013-07-05 16:10:00,
2013-07-05 06:15:00,68.4,64.7,30.06,ENE,68,0.0,1.2,88,0.00,SCT,BKN,0.00,0.0,WeatherDisplay:10.37,2013-07-05 16:15:00,
2013-07-05 06:20:00,68.4,64.7,30.06,ENE,68,0.0,0.0,88,0.00,SCT,BKN,0.00,0.0,WeatherDisplay:10.37,2013-07-05 16:20:00,
2013-07-05 06:25:00,68.5,64.8,30.06,ENE,68,0.0,0.0,88,0.00,SCT,BKN,0.00,0.0,WeatherDisplay:10.37,2013-07-05 16:25:00,
2013-07-05 06:30:00,68.5,64.8,30.06,ENE,68,0.0,0.0,88,0.00,SCT,BKN,0.00,0.0,WeatherDisplay:10.37,2013-07-05 16:30:00,
2013-07-05 06:35:00,68.6,64.9,30.06,ENE,68,0.0,0.0,88,0.00,SCT,BKN,0.00,0.0,WeatherDisplay:10.37,2013-07-05 16:35:00,
2013-07-05 06:40:00,68.7,65.0,30.06,ENE,68,0.0,0.0,88,0.00,SCT,BKN,0.00,0.0,WeatherDisplay:10.37,2013-07-05 16:40:00,
2013-07-05 06:45:00,68.7,65.0,30.06,NE,45,0.0,0.0,88,0.00,SCT,BKN,0.00,0.0,WeatherDisplay:10.37,2013-07-05 16:45:00,
2013-07-05 06:50:00,68.9,65.2,30.06,East,90,0.0,0.0,88,0.00,SCT,BKN,0.00,0.0,WeatherDisplay:10.37,2013-07-05 16:50:00,
2013-07-05 06:55:00,68.9,65.2,30.06,East,90,0.0,0.0,88,0.00,SCT,BKN,0.00,0.0,WeatherDisplay:10.37,2013-07-05 16:55:00,
2013-07-05 07:00:00,68.9,65.2,30.06,East,90,0.0,0.0,88,0.00,SCT,BKN,0.00,0.0,WeatherDisplay:10.37,2013-07-05 17:00:00,
2013-07-05 07:05:00,69.1,65.4,30.06,East,90,0.0,0.0,88,0.00,SCT,BKN,0.00,0.0,WeatherDisplay:10.37,2013-07-05 17:05:00,
2013-07-05 07:10:00,69.1,65.4,30.06,East,90,0.0,0.0,88,0.00,SCT,BKN,0.00,0.0,WeatherDisplay:10.37,2013-07-05 17:10:00,
2013-07-05 07:11:00,69.1,65.4,30.06,East,90,0.0,0.0,88,0.00,SCT,BKN,0.00,0.0,WeatherDisplay:10.37,2013-07-05 17:11:00,
2013-07-05 07:16:00,69.3,65.6,30.06,East,90,0.0,0.0,88,0.00,SCT,BKN,0.00,0.0,WeatherDisplay:10.37,2013-07-05 17:16:00,
2013-07-05 07:21:00,69.3,65.6,30.06,East,90,0.0,0.0,88,0.00,SCT,BKN,0.00,0.0,WeatherDisplay:10.37,2013-07-05 17:21:00,
2013-07-05 07:26:00,69.4,65.4,30.06,East,90,0.0,0.0,87,0.00,SCT,BKN,0.00,0.0,WeatherDisplay:10.37,2013-07-05 17:26:00,
2013-07-05 07:31:00,69.4,65.4,30.06,East,90,0.0,0.0,87,0.00,SCT,BKN,0.00,0.0,WeatherDisplay:10.37,2013-07-05 17:31:00,
2013-07-05 07:36:00,69.6,65.6,30.06,East,90,0.0,1.2,87,0.00,SCT,BKN,0.00,0.0,WeatherDisplay:10.37,2013-07-05 17:36:00,
2013-07-05 07:41:00,69.8,65.8,30.06,East,90,0.0,0.0,87,0.00,SCT,BKN,0.00,0.0,WeatherDisplay:10.37,2013-07-05 17:41:00,
2013-07-05 07:46:00,70.0,65.9,30.06,East,90,0.0,1.2,87,0.00,SCT,BKN,0.00,0.0,WeatherDisplay:10.37,2013-07-05 17:46:00,
2013-07-05 07:51:00,70.2,66.1,30.06,East,90,0.0,0.0,87,0.00,SCT,BKN,0.00,0.0,WeatherDisplay:10.37,2013-07-05 17:51:00,
2013-07-05 07:56:00,70.3,66.0,30.06,East,90,0.0,0.0,86,0.00,SCT,BKN,0.00,0.0,WeatherDisplay:10.37,2013-07-05 17:56:00,
2013-07-05 08:01:00,70.7,66.3,30.06,East,90,0.0,0.0,86,0.00,SCT,BKN,0.00,0.0,WeatherDisplay:10.37,2013-07-05 18:01:00,
2013-07-05 08:06:00,70.9,66.1,30.06,SSW,202,0.0,0.0,85,0.00,SCT,BKN,0.00,0.0,WeatherDisplay:10.37,2013-07-05 18:06:00,
2013-07-05 08:11:00,71.2,66.2,30.06,NE,45,0.0,0.0,84,0.00,SCT,BKN,0.00,0.0,WeatherDisplay:10.37,2013-07-05 18:11:00,
2013-07-05 08:16:00,71.4,66.3,30.06,ENE,68,0.0,0.0,84,0.00,SCT,BKN,0.00,0.0,WeatherDisplay:10.37,2013-07-05 18:16:00,
2013-07-05 08:21:00,71.4,66.3,30.06,ENE,68,0.0,0.0,84,0.00,SCT,BKN,0.00,0.0,WeatherDisplay:10.37,2013-07-05 18:21:00,
2013-07-05 08:26:00,71.6,66.2,30.06,ENE,68,0.0,0.0,83,0.00,SCT,BKN,0.00,0.0,WeatherDisplay:10.37,2013-07-05 18:26:00,
2013-07-05 08:31:00,72.0,66.5,30.06,NE,45,0.0,2.3,83,0.00,SCT,BKN,0.00,0.0,WeatherDisplay:10.37,2013-07-05 18:31:00,
2013-07-05 08:36:00,72.3,66.5,30.06,NE,45,0.9,1.2,82,0.00,SCT,BKN,0.00,0.0,WeatherDisplay:10.37,2013-07-05 18:36:00,
2013-07-05 08:41:00,72.9,66.3,30.09,NE,45,0.0,2.0,80,0.00,SCT,BKN,0.00,0.0,WeatherDisplay:10.37,2013-07-05 18:41:00,
2013-07-05 08:46:00,73.4,66.1,30.09,West,270,0.0,0.0,78,0.00,SCT,BKN,0.00,0.0,WeatherDisplay:10.37,2013-07-05 18:46:00,
2013-07-05 08:51:00,73.4,65.7,30.09,NE,45,0.0,1.2,77,0.00,SCT,BKN,0.00,0.0,WeatherDisplay:10.37,2013-07-05 18:51:00,
2013-07-05 08:56:00,73.6,65.9,30.06,ENE,68,0.0,0.0,77,0.00,SCT,BKN,0.00,0.0,WeatherDisplay:10.37,2013-07-05 18:56:00,
2013-07-05 09:01:00,73.9,65.5,30.06,NE,45,1.4,2.3,75,0.00,SCT,BKN,0.00,0.0,WeatherDisplay:10.37,2013-07-05 19:01:00,
2013-07-05 09:06:00,74.5,64.5,30.06,NE,45,0.9,2.3,71,0.00,SCT,BKN,0.00,0.0,WeatherDisplay:10.37,2013-07-05 19:06:00,
2013-07-05 09:11:00,74.8,64.4,30.06,NE,45,0.0,2.3,70,0.00,SCT,BKN,0.00,125.0,WeatherDisplay:10.37,2013-07-05 19:11:00,
2013-07-05 09:16:00,75.4,64.1,30.06,NE,45,2.2,2.3,68,0.00,SCT,BKN,0.00,125.0,WeatherDisplay:10.37,2013-07-05 19:16:00,
2013-07-05 09:21:00,75.6,64.3,30.06,NE,45,1.2,1.4,68,0.00,SCT,BKN,0.00,125.0,WeatherDisplay:10.37,2013-07-05 19:21:00,
2013-07-05 09:25:00,75.7,63.6,30.06,NNE,22,0.0,1.2,66,0.00,SCT,BKN,0.00,125.0,WeatherDisplay:10.37,2013-07-05 19:25:00,
2013-07-05 09:30:00,76.1,63.5,30.06,NE,45,1.4,1.4,65,0.00,SCT,BKN,0.00,125.0,WeatherDisplay:10.37,2013-07-05 19:30:00,
2013-07-05 09:35:00,76.5,63.4,30.06,NE,45,2.6,3.5,64,0.00,SCT,BKN,0.00,125.0,WeatherDisplay:10.37,2013-07-05 19:35:00,
2013-07-05 09:40:00,76.6,64.0,30.06,NE,45,0.0,1.2,65,0.00,SCT,BKN,0.00,125.0,WeatherDisplay:10.37,2013-07-05 19:40:00,
2013-07-05 09:45:00,76.8,63.7,30.06,North,0,2.2,4.6,64,0.00,SCT,BKN,0.00,125.0,WeatherDisplay:10.37,2013-07-05 19:45:00,
2013-07-05 09:50:00,77.0,63.9,30.06,NNE,22,1.2,3.1,64,0.00,SCT,BKN,0.00,125.0,WeatherDisplay:10.37,2013-07-05 19:50:00,
2013-07-05 09:55:00,77.4,63.8,30.06,NNW,338,0.0,3.5,63,0.00,SCT,BKN,0.00,125.0,WeatherDisplay:10.37,2013-07-05 19:55:00,
2013-07-05 10:00:00,77.5,61.6,30.06,NNW,338,2.4,3.5,58,0.00,SCT,BKN,0.00,125.0,WeatherDisplay:10.37,2013-07-05 20:00:00,
2013-07-05 10:05:00,77.9,63.4,30.06,NE,45,2.0,3.3,61,0.00,SCT,BKN,0.00,125.0,WeatherDisplay:10.37,2013-07-05 20:05:00,
2013-07-05 10:10:00,78.3,64.2,30.06,NE,45,0.9,2.6,62,0.00,SCT,BKN,0.00,125.0,WeatherDisplay:10.37,2013-07-05 20:10:00,
2013-07-05 10:15:00,78.3,63.7,30.06,NE,45,1.4,2.3,61,0.00,SCT,BKN,0.00,125.0,WeatherDisplay:10.37,2013-07-05 20:15:00,
2013-07-05 10:20:00,78.6,64.5,30.06,NNE,22,1.2,2.6,62,0.00,SCT,BKN,0.00,125.0,WeatherDisplay:10.37,2013-07-05 20:20:00,
2013-07-05 10:25:00,78.8,64.2,30.06,NNE,22,1.2,0.0,61,0.00,SCT,BKN,0.00,125.0,WeatherDisplay:10.37,2013-07-05 20:25:00,
2013-07-05 10:30:00,78.8,63.3,30.03,NE,45,1.6,2.9,59,0.00,SCT,BKN,0.00,125.0,WeatherDisplay:10.37,2013-07-05 20:30:00,
2013-07-05 10:35:00,79.0,64.4,30.03,NE,45,1.2,2.3,61,0.00,SCT,BKN,0.00,125.0,WeatherDisplay:10.37,2013-07-05 20:35:00,
2013-07-05 10:40:00,79.3,64.2,30.03,NE,45,2.9,4.6,60,0.00,SCT,BKN,0.00,125.0,WeatherDisplay:10.37,2013-07-05 20:40:00,
2013-07-05 10:45:00,79.5,64.4,30.06,NE,45,3.3,4.6,60,0.00,SCT,BKN,0.00,125.0,WeatherDisplay:10.37,2013-07-05 20:45:00,
2013-07-05 10:50:00,79.7,64.6,30.06,North,0,1.4,2.3,60,0.00,SCT,BKN,0.00,125.0,WeatherDisplay:10.37,2013-07-05 20:50:00,
2013-07-05 10:55:00,79.9,64.3,30.06,NE,45,2.9,3.5,59,0.00,SCT,BKN,0.00,125.0,WeatherDisplay:10.37,2013-07-05 20:55:00,
2013-07-05 11:00:00,79.9,64.3,30.06,NE,45,3.3,4.6,59,0.00,SCT,BKN,0.00,125.0,WeatherDisplay:10.37,2013-07-05 21:00:00,
2013-07-05 11:05:00,80.1,64.4,30.06,NNE,22,2.2,3.5,59,0.00,SCT,BKN,0.00,125.0,WeatherDisplay:10.37,2013-07-05 21:05:00,
2013-07-05 11:10:00,80.2,63.1,30.06,NNE,22,3.8,5.8,56,0.00,SCT,BKN,0.00,375.0,WeatherDisplay:10.37,2013-07-05 21:10:00,
2013-07-05 11:15:00,80.4,63.8,30.06,NNE,22,3.3,5.8,57,0.00,SCT,BKN,0.00,250.0,WeatherDisplay:10.37,2013-07-05 21:15:00,
2013-07-05 11:20:00,80.6,63.5,30.06,NE,45,4.5,5.8,56,0.00,SCT,BKN,0.00,250.0,WeatherDisplay:10.37,2013-07-05 21:20:00,
2013-07-05 11:26:00,81.0,64.3,30.06,NNE,22,3.3,3.6,57,0.00,SCT,BKN,0.00,250.0,WeatherDisplay:10.37,2013-07-05 21:26:00,
2013-07-05 11:31:00,81.9,65.6,30.06,NNE,22,3.8,4.6,58,0.00,SCT,BKN,0.00,625.0,WeatherDisplay:10.37,2013-07-05 21:31:00,
2013-07-05 11:36:00,82.2,65.0,30.06,NNE,22,3.6,5.8,56,0.00,SCT,BKN,0.00,375.0,WeatherDisplay:10.37,2013-07-05 21:36:00,
2013-07-05 11:41:00,82.6,64.8,30.06,NE,45,4.9,6.0,55,0.00,SCT,BKN,0.00,875.0,WeatherDisplay:10.37,2013-07-05 21:41:00,
2013-07-05 11:46:00,83.8,65.9,30.06,NE,45,3.3,4.6,55,0.00,SCT,BKN,0.00,1500.0,WeatherDisplay:10.37,2013-07-05 21:46:00,
2013-07-05 11:51:00,85.3,66.8,30.06,NE,45,3.6,6.0,54,0.00,SCT,BKN,0.00,1500.0,WeatherDisplay:10.37,2013-07-05 21:51:00,
2013-07-05 11:56:00,84.9,64.8,30.06,NNE,22,4.5,6.2,51,0.00,SCT,BKN,0.00,1500.0,WeatherDisplay:10.37,2013-07-05 21:56:00,
2013-07-05 12:01:00,85.8,65.6,30.06,NE,45,3.3,4.6,51,0.00,SCT,BKN,0.00,1500.0,WeatherDisplay:10.37,2013-07-05 22:01:00,
2013-07-05 12:03:00,86.7,66.4,30.06,NE,45,2.4,3.5,51,0.00,SCT,BKN,0.00,1500.0,WeatherDisplay:10.37,2013-07-05 22:03:00,
2013-07-05 12:08:00,87.6,66.7,30.06,ENE,68,2.4,3.5,50,0.00,SCT,BKN,0.00,1500.0,WeatherDisplay:10.37,2013-07-05 22:08:00,
2013-07-05 12:13:00,87.8,64.4,30.03,NE,45,3.8,3.8,46,0.00,SCT,BKN,0.00,1500.0,WeatherDisplay:10.37,2013-07-05 22:13:00,
2013-07-05 12:18:00,88.5,65.1,30.03,North,0,3.8,5.8,46,0.00,SCT,BKN,0.00,1500.0,WeatherDisplay:10.37,2013-07-05 22:18:00,
2013-07-05 12:23:00,90.5,67.5,30.03,North,0,0.9,2.3,47,0.00,SCT,BKN,0.00,1500.0,WeatherDisplay:10.37,2013-07-05 22:23:00,
2013-07-05 12:24:00,90.9,67.8,30.03,North,0,1.4,2.6,47,0.00,SCT,BKN,0.00,1500.0,WeatherDisplay:10.37,2013-07-05 22:24:00,
2013-07-05 12:29:00,89.6,64.1,30.06,NE,45,3.3,5.8,43,0.00,SCT,BKN,0.00,1500.0,WeatherDisplay:10.37,2013-07-05 22:29:00,
2013-07-05 12:34:00,90.1,65.9,30.06,NE,45,2.9,6.9,45,0.00,SCT,BKN,0.00,1500.0,WeatherDisplay:10.37,2013-07-05 22:34:00,
2013-07-05 12:39:00,89.2,65.1,30.06,NE,45,4.3,5.8,45,0.00,SCT,BKN,0.00,1500.0,WeatherDisplay:10.37,2013-07-05 22:39:00,
2013-07-05 12:44:00,89.6,64.1,30.06,NE,45,4.7,6.2,43,0.00,SCT,BKN,0.00,1500.0,WeatherDisplay:10.37,2013-07-05 22:44:00,
2013-07-05 12:49:00,89.2,65.1,30.06,NNE,22,3.3,4.6,45,0.00,SCT,BKN,0.00,1500.0,WeatherDisplay:10.37,2013-07-05 22:49:00,
2013-07-05 12:54:00,89.4,64.6,30.06,North,0,4.9,5.8,44,0.00,SCT,BKN,0.00,1500.0,WeatherDisplay:10.37,2013-07-05 22:54:00,
2013-07-05 12:59:00,89.6,64.1,30.06,NE,45,3.1,4.6,43,0.00,SCT,BKN,0.00,1500.0,WeatherDisplay:10.37,2013-07-05 22:59:00,
2013-07-05 13:04:00,88.9,64.1,30.06,NNE,22,4.9,6.0,44,0.00,SCT,BKN,0.00,1500.0,WeatherDisplay:10.37,2013-07-05 23:04:00,
2013-07-05 13:09:00,88.2,64.1,30.06,NE,45,4.5,6.9,45,0.00,SCT,BKN,0.00,1625.0,WeatherDisplay:10.37,2013-07-05 23:09:00,
2013-07-05 13:14:00,88.0,64.6,30.06,NNE,22,5.6,6.0,46,0.00,SCT,BKN,0.00,1625.0,WeatherDisplay:10.37,2013-07-05 23:14:00,
2013-07-05 13:19:00,88.2,64.8,30.06,ENE,68,3.6,5.8,46,0.00,SCT,BKN,0.00,1625.0,WeatherDisplay:10.37,2013-07-05 23:19:00,
2013-07-05 13:24:00,88.9,64.8,30.06,NNE,22,4.5,5.8,45,0.00,SCT,BKN,0.00,1625.0,WeatherDisplay:10.37,2013-07-05 23:24:00,
2013-07-05 13:29:00,89.4,65.9,30.06,NE,45,2.9,6.9,46,0.00,SCT,BKN,0.00,250.0,WeatherDisplay:10.37,2013-07-05 23:29:00,
2013-07-05 13:34:00,89.4,65.9,30.06,North,0,3.6,5.8,46,0.00,SCT,BKN,0.00,125.0,WeatherDisplay:10.37,2013-07-05 23:34:00,
2013-07-05 13:39:00,90.0,65.8,30.06,NNE,22,3.6,4.6,45,0.00,SCT,BKN,0.00,250.0,WeatherDisplay:10.37,2013-07-05 23:39:00,
2013-07-05 13:44:00,90.0,65.1,30.03,NE,45,3.3,4.6,44,0.00,SCT,BKN,0.00,250.0,WeatherDisplay:10.37,2013-07-05 23:44:00,
2013-07-05 13:49:00,90.0,64.5,30.03,NE,45,4.3,5.4,43,0.00,SCT,BKN,0.00,125.0,WeatherDisplay:10.37,2013-07-05 23:49:00,
2013-07-05 13:54:00,89.4,64.6,30.03,NE,45,4.3,6.9,44,0.00,SCT,BKN,0.00,125.0,WeatherDisplay:10.37,2013-07-05 23:54:00,
2013-07-05 13:59:00,89.8,64.3,30.03,NE,45,4.5,5.8,43,0.00,SCT,BKN,0.00,1000.0,WeatherDisplay:10.37,2013-07-05 23:59:00,
2013-07-05 14:04:00,90.5,64.9,30.03,NE,45,2.4,4.6,43,0.00,SCT,BKN,0.00,1375.0,WeatherDisplay:10.37,2013-07-06 00:04:00,
2013-07-05 14:09:00,89.6,63.5,30.03,South,180,2.6,5.8,42,0.00,SCT,BKN,0.00,1375.0,WeatherDisplay:10.37,2013-07-06 00:09:00,
2013-07-05 14:14:00,89.8,64.3,30.03,NE,45,4.3,6.9,43,0.00,SCT,BKN,0.00,1375.0,WeatherDisplay:10.37,2013-07-06 00:14:00,
2013-07-05 14:19:00,89.6,64.1,30.03,ENE,68,5.4,6.9,43,0.00,SCT,BKN,0.00,1375.0,WeatherDisplay:10.37,2013-07-06 00:19:00,
2013-07-05 14:29:00,89.8,64.3,30.03,NE,45,3.1,5.8,43,0.00,SCT,BKN,0.00,1375.0,WeatherDisplay:10.37,2013-07-06 00:29:00,
2013-07-05 14:34:00,90.9,65.9,30.03,NE,45,1.4,3.5,44,0.00,SCT,BKN,0.00,1250.0,WeatherDisplay:10.37,2013-07-06 00:34:00,
2013-07-05 14:39:00,89.6,64.1,30.03,ENE,68,4.7,5.8,43,0.00,SCT,BKN,0.00,1250.0,WeatherDisplay:10.37,2013-07-06 00:39:00,
2013-07-05 14:44:00,89.6,64.1,30.03,East,90,4.0,5.8,43,0.00,SCT,BKN,0.00,1250.0,WeatherDisplay:10.37,2013-07-06 00:44:00,
2013-07-05 14:49:00,88.5,63.8,30.03,NW,315,4.0,4.9,44,0.00,SCT,BKN,0.00,1250.0,WeatherDisplay:10.37,2013-07-06 00:49:00,
2013-07-05 14:57:00,90.0,65.1,30.03,NNW,338,1.4,3.5,44,0.00,SCT,BKN,0.00,1250.0,WeatherDisplay:10.37,2013-07-06 00:57:00,
2013-07-05 15:02:00,90.1,64.6,30.03,North,0,3.1,4.6,43,0.00,SCT,BKN,0.00,1125.0,WeatherDisplay:10.37,2013-07-06 01:02:00,
2013-07-05 15:07:00,90.7,64.4,30.03,NE,45,4.3,5.8,42,0.00,SCT,BKN,0.00,1125.0,WeatherDisplay:10.37,2013-07-06 01:07:00,
2013-07-05 15:12:00,90.5,64.9,30.03,NNE,22,2.0,4.9,43,0.00,SCT,BKN,0.00,1125.0,WeatherDisplay:10.37,2013-07-06 01:12:00,
2013-07-05 15:17:00,90.5,64.3,30.03,NE,45,4.0,4.9,42,0.00,SCT,BKN,0.00,1125.0,WeatherDisplay:10.37,2013-07-06 01:17:00,
2013-07-05 15:22:00,90.0,64.5,30.03,North,0,3.6,6.2,43,0.00,SCT,BKN,0.00,1000.0,WeatherDisplay:10.37,2013-07-06 01:22:00,
2013-07-05 15:27:00,90.1,65.3,30.00,NW,315,2.4,4.6,44,0.00,SCT,BKN,0.00,1000.0,WeatherDisplay:10.37,2013-07-06 01:27:00,
2013-07-05 15:32:00,90.5,64.9,30.00,NE,45,3.6,4.3,43,0.00,SCT,BKN,0.00,1000.0,WeatherDisplay:10.37,2013-07-06 01:32:00,
2013-07-05 15:37:00,89.8,63.6,30.00,NE,45,3.6,4.0,42,0.00,SCT,BKN,0.00,875.0,WeatherDisplay:10.37,2013-07-06 01:37:00,
2013-07-05 15:42:00,90.3,65.4,30.00,NE,45,2.0,3.5,44,0.00,SCT,BKN,0.00,875.0,WeatherDisplay:10.37,2013-07-06 01:42:00,
2013-07-05 15:47:00,90.7,65.8,30.00,NE,45,1.2,3.5,44,0.00,SCT,BKN,0.00,875.0,WeatherDisplay:10.37,2013-07-06 01:47:00,
2013-07-05 15:52:00,89.1,63.7,30.00,NNE,22,2.4,6.9,43,0.00,SCT,BKN,0.00,750.0,WeatherDisplay:10.37,2013-07-06 01:52:00,
2013-07-05 15:57:00,88.3,64.3,30.00,NE,45,4.0,8.1,45,0.00,SCT,BKN,0.00,750.0,WeatherDisplay:10.37,2013-07-06 01:57:00,
2013-07-05 16:02:00,87.6,64.3,30.00,East,90,6.0,6.0,46,0.00,SCT,BKN,0.00,750.0,WeatherDisplay:10.37,2013-07-06 02:02:00,
2013-07-05 16:07:00,88.3,64.9,30.00,NE,45,3.8,4.9,46,0.00,SCT,BKN,0.00,625.0,WeatherDisplay:10.37,2013-07-06 02:07:00,
2013-07-05 16:12:00,87.4,64.1,30.00,NE,45,4.5,5.8,46,0.00,SCT,BKN,0.00,625.0,WeatherDisplay:10.37,2013-07-06 02:12:00,
2013-07-05 16:17:00,88.0,64.6,30.00,NE,45,2.0,4.3,46,0.00,SCT,BKN,0.00,625.0,WeatherDisplay:10.37,2013-07-06 02:17:00,
2013-07-05 16:22:00,87.3,64.6,30.00,NNE,22,3.6,4.6,47,0.00,SCT,BKN,0.00,625.0,WeatherDisplay:10.37,2013-07-06 02:22:00,
2013-07-05 16:27:00,87.3,65.2,30.00,ENE,68,2.9,3.5,48,0.00,SCT,BKN,0.00,500.0,WeatherDisplay:10.37,2013-07-06 02:27:00,
2013-07-05 16:32:00,86.5,64.5,30.00,ENE,68,3.3,3.5,48,0.00,SCT,BKN,0.00,500.0,WeatherDisplay:10.37,2013-07-06 02:32:00,
2013-07-05 16:37:00,85.6,64.9,30.00,NE,45,2.4,5.8,50,0.00,SCT,BKN,0.00,250.0,WeatherDisplay:10.37,2013-07-06 02:37:00,
2013-07-05 16:42:00,84.0,63.9,30.00,NE,45,4.0,5.8,51,0.00,SCT,BKN,0.00,125.0,WeatherDisplay:10.37,2013-07-06 02:42:00,
2013-07-05 16:47:00,82.4,64.6,30.00,NNE,22,2.9,4.6,55,0.00,SCT,BKN,0.00,250.0,WeatherDisplay:10.37,2013-07-06 02:47:00,
2013-07-05 16:52:00,83.3,64.9,30.00,ENE,68,4.5,5.8,54,0.00,SCT,BKN,0.00,250.0,WeatherDisplay:10.37,2013-07-06 02:52:00,
2013-07-05 16:57:00,84.6,66.6,30.00,ENE,68,2.4,3.5,55,0.00,SCT,BKN,0.00,125.0,WeatherDisplay:10.37,2013-07-06 02:57:00,
2013-07-05 17:02:00,84.4,65.4,30.00,East,90,5.9,8.1,53,0.00,SCT,BKN,0.00,125.0,WeatherDisplay:10.37,2013-07-06 03:02:00,
2013-07-05 17:07:00,84.7,66.3,30.00,ENE,68,4.9,5.8,54,0.00,SCT,BKN,0.00,125.0,WeatherDisplay:10.37,2013-07-06 03:07:00,
2013-07-05 17:12:00,84.4,66.4,30.00,NE,45,4.7,5.8,55,0.00,SCT,BKN,0.00,125.0,WeatherDisplay:10.37,2013-07-06 03:12:00,
2013-07-05 17:17:00,84.0,66.6,30.00,NE,45,4.9,5.8,56,0.00,SCT,BKN,0.00,125.0,WeatherDisplay:10.37,2013-07-06 03:17:00,
2013-07-05 17:22:00,84.4,67.0,30.00,NE,45,3.1,3.5,56,0.00,SCT,BKN,0.00,125.0,WeatherDisplay:10.37,2013-07-06 03:22:00,
2013-07-05 17:27:00,83.7,66.3,29.97,East,90,4.5,5.8,56,0.00,SCT,BKN,0.00,125.0,WeatherDisplay:10.37,2013-07-06 03:27:00,
2013-07-05 17:32:00,83.3,66.5,29.97,NNE,22,2.9,5.8,57,0.00,SCT,BKN,0.00,0.0,WeatherDisplay:10.37,2013-07-06 03:32:00,
2013-07-05 17:33:00,83.3,66.5,29.97,East,90,3.3,4.6,57,0.00,SCT,BKN,0.00,0.0,WeatherDisplay:10.37,2013-07-06 03:33:00,
2013-07-05 17:38:00,83.5,66.6,29.97,NE,45,3.3,4.9,57,0.00,SCT,BKN,0.00,0.0,WeatherDisplay:10.37,2013-07-06 03:38:00,
2013-07-05 17:43:00,83.3,66.5,30.00,North,0,2.9,3.5,57,0.00,SCT,BKN,0.00,0.0,WeatherDisplay:10.37,2013-07-06 03:43:00,
2013-07-05 17:48:00,83.3,66.5,30.00,NE,45,4.9,5.8,57,0.00,SCT,BKN,0.00,0.0,WeatherDisplay:10.37,2013-07-06 03:48:00,
2013-07-05 17:53:00,83.5,66.6,30.00,NE,45,3.1,4.6,57,0.00,SCT,BKN,0.00,0.0,WeatherDisplay:10.37,2013-07-06 03:53:00,
2013-07-05 17:58:00,83.7,66.3,30.00,NE,45,3.1,3.5,56,0.00,SCT,BKN,0.00,0.0,WeatherDisplay:10.37,2013-07-06 03:58:00,
2013-07-05 18:01:00,83.8,66.5,30.00,NE,45,2.2,2.6,56,0.00,SCT,BKN,0.00,0.0,WeatherDisplay:10.37,2013-07-06 04:01:00,
2013-07-05 18:02:00,84.0,66.6,30.00,ENE,68,2.6,3.5,56,0.00,SCT,BKN,0.00,0.0,WeatherDisplay:10.37,2013-07-06 04:02:00,
2013-07-05 18:07:00,84.4,66.4,30.00,NNE,22,2.9,3.5,55,0.00,SCT,BKN,0.00,0.0,WeatherDisplay:10.37,2013-07-06 04:07:00,
2013-07-05 18:12:00,84.4,65.9,30.00,NE,45,3.1,3.5,54,0.00,SCT,BKN,0.00,0.0,WeatherDisplay:10.37,2013-07-06 04:12:00,
2013-07-05 18:17:00,83.3,66.0,30.00,East,90,2.2,4.6,56,0.00,SCT,BKN,0.00,0.0,WeatherDisplay:10.37,2013-07-06 04:17:00,
2013-07-05 18:22:00,83.5,66.1,30.00,NNE,22,3.3,5.8,56,0.00,SCT,BKN,0.00,0.0,WeatherDisplay:10.37,2013-07-06 04:22:00,
2013-07-05 18:27:00,82.9,66.1,30.03,ESE,112,2.4,3.3,57,0.00,SCT,BKN,0.00,0.0,WeatherDisplay:10.37,2013-07-06 04:27:00,
2013-07-05 18:32:00,83.7,66.3,30.03,NNE,22,2.2,3.5,56,0.00,SCT,BKN,0.00,0.0,WeatherDisplay:10.37,2013-07-06 04:32:00,
2013-07-05 18:37:00,82.4,65.1,30.03,NE,45,2.2,3.5,56,0.00,SCT,BKN,0.00,0.0,WeatherDisplay:10.37,2013-07-06 04:37:00,
2013-07-05 18:42:00,81.0,64.8,30.03,NE,45,4.0,5.8,58,0.00,SCT,BKN,0.00,0.0,WeatherDisplay:10.37,2013-07-06 04:42:00,
2013-07-05 18:47:00,77.7,64.6,30.03,SE,135,1.4,5.8,64,0.00,SCT,BKN,0.00,0.0,WeatherDisplay:10.37,2013-07-06 04:47:00,
2013-07-05 18:52:00,76.8,63.7,30.03,East,90,1.4,2.3,64,0.00,SCT,BKN,0.00,0.0,WeatherDisplay:10.37,2013-07-06 04:52:00,
2013-07-05 18:57:00,76.5,63.8,30.03,NE,45,2.6,2.6,65,0.00,SCT,BKN,0.00,0.0,WeatherDisplay:10.37,2013-07-06 04:57:00,
2013-07-05 19:02:00,75.9,63.7,30.03,SW,225,0.9,3.5,66,0.00,SCT,BKN,0.00,0.0,WeatherDisplay:10.37,2013-07-06 05:02:00,
2013-07-05 19:07:00,75.4,63.7,30.03,SSE,158,0.0,2.3,67,0.00,SCT,BKN,0.00,0.0,WeatherDisplay:10.37,2013-07-06 05:07:00,
2013-07-05 19:13:00,75.2,64.7,30.03,NE,45,3.8,4.6,70,0.00,SCT,BKN,0.00,0.0,WeatherDisplay:10.37,2013-07-06 05:13:00,
2013-07-05 19:18:00,75.0,64.6,30.03,SE,135,0.9,1.4,70,0.00,SCT,BKN,0.00,0.0,WeatherDisplay:10.37,2013-07-06 05:18:00,
2013-07-05 19:23:00,74.8,65.2,30.03,SW,225,3.1,3.5,72,0.00,SCT,BKN,0.00,0.0,WeatherDisplay:10.37,2013-07-06 05:23:00,
2013-07-05 19:28:00,74.7,65.0,30.06,West,270,2.4,3.5,72,0.00,SCT,BKN,0.00,0.0,WeatherDisplay:10.37,2013-07-06 05:28:00,
2013-07-05 19:33:00,74.5,64.1,30.06,ENE,68,0.0,1.2,70,0.00,SCT,BKN,0.00,0.0,WeatherDisplay:10.37,2013-07-06 05:33:00,
2013-07-05 19:38:00,74.3,63.5,30.06,ENE,68,2.6,5.8,69,0.00,SCT,BKN,0.00,0.0,WeatherDisplay:10.37,2013-07-06 05:38:00,
2013-07-05 19:43:00,74.5,63.6,30.03,ENE,68,3.3,4.6,69,0.00,SCT,BKN,0.00,0.0,WeatherDisplay:10.37,2013-07-06 05:43:00,
2013-07-05 19:48:00,74.5,63.6,30.03,NE,45,3.8,5.8,69,0.00,SCT,BKN,0.00,0.0,WeatherDisplay:10.37,2013-07-06 05:48:00,
2013-07-05 19:53:00,74.7,64.2,30.03,ENE,68,4.3,5.8,70,0.00,SCT,BKN,0.00,0.0,WeatherDisplay:10.37,2013-07-06 05:53:00,
2013-07-05 19:58:00,74.7,64.2,30.03,NE,45,4.5,5.9,70,0.00,SCT,BKN,0.00,0.0,WeatherDisplay:10.37,2013-07-06 05:58:00,
2013-07-05 20:03:00,74.5,64.5,30.03,NE,45,3.3,4.6,71,0.00,SCT,BKN,0.00,0.0,WeatherDisplay:10.37,2013-07-06 06:03:00,
2013-07-05 20:08:00,74.5,64.5,30.03,NE,45,4.5,5.8,71,0.00,SCT,BKN,0.00,0.0,WeatherDisplay:10.37,2013-07-06 06:08:00,
2013-07-05 20:13:00,74.5,64.5,30.03,NE,45,4.3,6.0,71,0.00,SCT,BKN,0.00,0.0,WeatherDisplay:10.37,2013-07-06 06:13:00,
2013-07-05 20:18:00,74.5,64.5,30.03,ENE,68,3.8,5.4,71,0.00,SCT,BKN,0.00,0.0,WeatherDisplay:10.37,2013-07-06 06:18:00,
2013-07-05 20:23:00,74.3,64.7,30.03,East,90,2.9,4.6,72,0.00,SCT,BKN,0.00,0.0,WeatherDisplay:10.37,2013-07-06 06:23:00,
2013-07-05 20:28:00,74.3,64.7,30.06,NE,45,2.6,5.8,72,0.00,SCT,BKN,0.00,0.0,WeatherDisplay:10.37,2013-07-06 06:28:00,
2013-07-05 20:33:00,74.1,64.1,30.06,ENE,68,1.4,2.3,71,0.00,SCT,BKN,0.00,0.0,WeatherDisplay:10.37,2013-07-06 06:33:00,
2013-07-05 20:38:00,73.9,63.9,30.06,SW,225,1.2,2.9,71,0.00,SCT,BKN,0.00,0.0,WeatherDisplay:10.37,2013-07-06 06:38:00,
2013-07-05 20:43:00,73.8,63.8,30.06,ESE,112,2.0,2.3,71,0.00,SCT,BKN,0.00,0.0,WeatherDisplay:10.37,2013-07-06 06:43:00,
2013-07-05 20:48:00,73.8,63.8,30.06,SSE,158,0.0,2.3,71,0.00,SCT,BKN,0.00,0.0,WeatherDisplay:10.37,2013-07-06 06:48:00,
2013-07-05 20:53:00,73.8,63.8,30.06,West,270,2.9,3.5,71,0.00,SCT,BKN,0.00,0.0,WeatherDisplay:10.37,2013-07-06 06:53:00,
2013-07-05 20:58:00,73.9,63.9,30.06,ESE,112,1.2,2.3,71,0.00,SCT,BKN,0.00,0.0,WeatherDisplay:10.37,2013-07-06 06:58:00,
2013-07-05 21:03:00,73.8,64.2,30.06,East,90,2.6,4.6,72,0.00,SCT,BKN,0.00,0.0,WeatherDisplay:10.37,2013-07-06 07:03:00,
2013-07-05 21:08:00,74.1,64.1,30.06,ENE,68,0.0,1.2,71,0.00,SCT,BKN,0.00,0.0,WeatherDisplay:10.37,2013-07-06 07:08:00,
2013-07-05 21:13:00,74.1,64.5,30.03,NNE,22,1.2,2.3,72,0.00,SCT,BKN,0.00,0.0,WeatherDisplay:10.37,2013-07-06 07:13:00,
2013-07-05 21:18:00,74.1,64.9,30.03,South,180,0.0,2.9,73,0.00,SCT,BKN,0.00,0.0,WeatherDisplay:10.37,2013-07-06 07:18:00,
2013-07-05 21:23:00,73.9,64.7,30.03,NE,45,1.6,2.3,73,0.00,SCT,BKN,0.00,0.0,WeatherDisplay:10.37,2013-07-06 07:23:00,
2013-07-05 21:25:00,73.9,64.7,30.03,West,270,1.6,2.3,73,0.00,SCT,BKN,0.00,0.0,WeatherDisplay:10.37,2013-07-06 07:25:00,
2013-07-05 21:30:00,73.9,64.3,30.06,East,90,0.0,2.3,72,0.00,SCT,BKN,0.00,0.0,WeatherDisplay:10.37,2013-07-06 07:30:00,
2013-07-05 21:35:00,73.8,64.2,30.06,ESE,112,0.0,1.2,72,0.00,SCT,BKN,0.00,0.0,WeatherDisplay:10.37,2013-07-06 07:35:00,
2013-07-05 21:40:00,73.8,64.2,30.06,SSE,158,0.0,2.3,72,0.00,SCT,BKN,0.00,0.0,WeatherDisplay:10.37,2013-07-06 07:40:00,
2013-07-05 21:45:00,73.8,65.0,30.06,SSW,202,3.6,4.9,74,0.00,SCT,BKN,0.00,0.0,WeatherDisplay:10.37,2013-07-06 07:45:00,
2013-07-05 21:50:00,73.6,65.2,30.06,SW,225,1.4,3.5,75,0.00,SCT,BKN,0.00,0.0,WeatherDisplay:10.37,2013-07-06 07:50:00,
2013-07-05 21:55:00,73.4,65.0,30.06,SSW,202,1.2,2.9,75,0.00,SCT,BKN,0.00,0.0,WeatherDisplay:10.37,2013-07-06 07:55:00,
2013-07-05 22:00:00,73.2,65.2,30.06,South,180,0.0,0.0,76,0.00,SCT,BKN,0.00,0.0,WeatherDisplay:10.37,2013-07-06 08:00:00,
2013-07-05 22:05:00,73.0,65.0,30.06,NE,45,0.9,2.0,76,0.00,SCT,BKN,0.00,0.0,WeatherDisplay:10.37,2013-07-06 08:05:00,
2013-07-05 22:10:00,72.9,65.2,30.06,South,180,1.2,3.5,77,0.00,SCT,BKN,0.00,0.0,WeatherDisplay:10.37,2013-07-06 08:10:00,
2013-07-05 22:15:00,72.9,65.6,30.09,SW,225,2.2,3.5,78,0.00,SCT,BKN,0.00,0.0,WeatherDisplay:10.37,2013-07-06 08:15:00,
2013-07-05 22:20:00,72.7,65.1,30.09,SE,135,0.0,2.3,77,0.00,SCT,BKN,0.00,0.0,WeatherDisplay:10.37,2013-07-06 08:20:00,
2013-07-05 22:25:00,72.5,64.9,30.09,South,180,0.0,1.2,77,0.00,SCT,BKN,0.00,0.0,WeatherDisplay:10.37,2013-07-06 08:25:00,
2013-07-05 22:30:00,72.5,65.2,30.09,SSE,158,1.6,3.1,78,0.00,SCT,BKN,0.00,0.0,WeatherDisplay:10.37,2013-07-06 08:30:00,
2013-07-05 22:35:00,72.7,65.4,30.09,WSW,248,1.4,2.3,78,0.00,SCT,BKN,0.00,0.0,WeatherDisplay:10.37,2013-07-06 08:35:00,
2013-07-05 22:40:00,72.5,65.2,30.09,SSE,158,1.6,2.3,78,0.00,SCT,BKN,0.00,0.0,WeatherDisplay:10.37,2013-07-06 08:40:00,
2013-07-05 22:45:00,72.3,65.1,30.09,SW,225,0.0,1.6,78,0.00,SCT,BKN,0.00,0.0,WeatherDisplay:10.37,2013-07-06 08:45:00,
2013-07-05 22:50:00,72.3,65.4,30.09,WSW,248,2.9,4.6,79,0.00,SCT,BKN,0.00,0.0,WeatherDisplay:10.37,2013-07-06 08:50:00,
2013-07-05 22:55:00,72.3,65.4,30.09,SSW,202,0.9,1.2,79,0.00,SCT,BKN,0.00,0.0,WeatherDisplay:10.37,2013-07-06 08:55:00,
2013-07-05 23:00:00,72.1,65.3,30.09,SE,135,0.0,0.0,79,0.00,SCT,BKN,0.00,0.0,WeatherDisplay:10.37,2013-07-06 09:00:00,
2013-07-05 23:05:00,71.8,64.9,30.09,SE,135,0.0,0.0,79,0.00,SCT,BKN,0.00,0.0,WeatherDisplay:10.37,2013-07-06 09:05:00,
2013-07-05 23:10:00,71.6,64.7,30.09,South,180,0.9,1.2,79,0.00,SCT,BKN,0.00,0.0,WeatherDisplay:10.37,2013-07-06 09:10:00,
2013-07-05 23:15:00,71.8,64.9,30.09,ENE,68,0.0,0.0,79,0.00,SCT,BKN,0.00,0.0,WeatherDisplay:10.37,2013-07-06 09:15:00,
2013-07-05 23:20:00,71.6,64.7,30.09,ENE,68,0.0,0.0,79,0.00,SCT,BKN,0.00,0.0,WeatherDisplay:10.37,2013-07-06 09:20:00,
2013-07-05 23:25:00,71.4,64.9,30.09,East,90,0.0,0.0,80,0.00,SCT,BKN,0.00,0.0,WeatherDisplay:10.37,2013-07-06 09:25:00,
2013-07-05 23:30:00,71.4,64.9,30.09,East,90,0.0,0.0,80,0.00,SCT,BKN,0.00,0.0,WeatherDisplay:10.37,2013-07-06 09:30:00,
2013-07-05 23:35:00,71.2,65.1,30.09,East,90,0.0,1.2,81,0.00,SCT,BKN,0.00,0.0,WeatherDisplay:10.37,2013-07-06 09:35:00,
2013-07-05 23:40:00,71.2,65.1,30.09,SE,135,0.0,0.0,81,0.00,SCT,BKN,0.00,0.0,WeatherDisplay:10.37,2013-07-06 09:40:00,
2013-07-05 23:45:00,71.2,65.5,30.09,SE,135,0.0,0.0,82,0.00,SCT,BKN,0.00,0.0,WeatherDisplay:10.37,2013-07-06 09:45:00,
2013-07-05 23:50:00,71.1,64.9,30.09,SE,135,0.0,0.0,81,0.00,SCT,BKN,0.00,0.0,WeatherDisplay:10.37,2013-07-06 09:50:00,
2013-07-05 23:55:00,70.9,64.8,30.09,SE,135,0.0,0.0,81,0.00,SCT,BKN,0.00,0.0,WeatherDisplay:10.37,2013-07-06 09:55:00,